sensor_id;sensor_type;location;lat;lon;timestamp;P1;durP1;ratioP1;P2;durP2;ratioP2
20828;SDS011;10575;50.124;8.582;2023-05-08T00:02:28;8.70;;;7.75;;
20828;SDS011;10575;50.124;8.582;2023-05-08T00:04:55;12.02;;;8.32;;
20828;SDS011;10575;50.124;8.582;2023-05-08T00:07:20;9.38;;;8.38;;
20828;SDS011;10575;50.124;8.582;2023-05-08T00:09:46;9.30;;;8.10;;
20828;SDS011;10575;50.124;8.582;2023-05-08T00:12:12;12.00;;;9.15;;
20828;SDS011;10575;50.124;8.582;2023-05-08T00:14:38;9.02;;;8.07;;
20828;SDS011;10575;50.124;8.582;2023-05-08T00:17:03;10.50;;;8.40;;
20828;SDS011;10575;50.124;8.582;2023-05-08T00:19:29;12.60;;;8.88;;
20828;SDS011;10575;50.124;8.582;2023-05-08T00:21:55;9.50;;;7.88;;
20828;SDS011;10575;50.124;8.582;2023-05-08T00:24:20;11.52;;;9.13;;
20828;SDS011;10575;50.124;8.582;2023-05-08T00:26:46;11.48;;;8.65;;
20828;SDS011;10575;50.124;8.582;2023-05-08T00:29:11;11.15;;;8.95;;
20828;SDS011;10575;50.124;8.582;2023-05-08T00:31:37;12.27;;;8.55;;
20828;SDS011;10575;50.124;8.582;2023-05-08T00:34:02;12.27;;;9.32;;
20828;SDS011;10575;50.124;8.582;2023-05-08T00:36:28;11.07;;;8.93;;
20828;SDS011;10575;50.124;8.582;2023-05-08T00:38:53;11.25;;;9.00;;
20828;SDS011;10575;50.124;8.582;2023-05-08T00:41:19;10.02;;;8.85;;
20828;SDS011;10575;50.124;8.582;2023-05-08T00:43:44;11.60;;;8.00;;
20828;SDS011;10575;50.124;8.582;2023-05-08T00:46:10;11.13;;;7.50;;
20828;SDS011;10575;50.124;8.582;2023-05-08T00:48:35;11.55;;;8.68;;
20828;SDS011;10575;50.124;8.582;2023-05-08T00:51:03;13.20;;;9.27;;
20828;SDS011;10575;50.124;8.582;2023-05-08T00:53:32;10.48;;;8.32;;
20828;SDS011;10575;50.124;8.582;2023-05-08T00:56:00;12.80;;;8.65;;
20828;SDS011;10575;50.124;8.582;2023-05-08T00:58:26;13.85;;;9.73;;
20828;SDS011;10575;50.124;8.582;2023-05-08T01:00:53;12.50;;;9.27;;
20828;SDS011;10575;50.124;8.582;2023-05-08T01:03:21;9.82;;;8.73;;
20828;SDS011;10575;50.124;8.582;2023-05-08T01:05:47;11.60;;;9.35;;
20828;SDS011;10575;50.124;8.582;2023-05-08T01:08:13;12.77;;;8.23;;
20828;SDS011;10575;50.124;8.582;2023-05-08T01:10:41;11.38;;;8.23;;
20828;SDS011;10575;50.124;8.582;2023-05-08T01:16:19;11.80;;;9.10;;
20828;SDS011;10575;50.124;8.582;2023-05-08T01:21:59;13.77;;;8.90;;
20828;SDS011;10575;50.124;8.582;2023-05-08T01:28:06;10.57;;;8.50;;
20828;SDS011;10575;50.124;8.582;2023-05-08T01:33:52;14.30;;;10.48;;
20828;SDS011;10575;50.124;8.582;2023-05-08T01:39:13;10.10;;;8.73;;
20828;SDS011;10575;50.124;8.582;2023-05-08T01:41:49;14.38;;;8.65;;
20828;SDS011;10575;50.124;8.582;2023-05-08T01:44:23;14.65;;;8.70;;
20828;SDS011;10575;50.124;8.582;2023-05-08T01:46:52;10.65;;;8.63;;
20828;SDS011;10575;50.124;8.582;2023-05-08T01:49:25;9.18;;;7.82;;
20828;SDS011;10575;50.124;8.582;2023-05-08T01:52:13;15.35;;;8.82;;
20828;SDS011;10575;50.124;8.582;2023-05-08T01:54:43;11.50;;;8.95;;
20828;SDS011;10575;50.124;8.582;2023-05-08T01:57:15;11.48;;;8.52;;
20828;SDS011;10575;50.124;8.582;2023-05-08T01:59:43;9.63;;;8.00;;
20828;SDS011;10575;50.124;8.582;2023-05-08T02:02:10;10.10;;;8.52;;
20828;SDS011;10575;50.124;8.582;2023-05-08T02:04:36;9.25;;;7.25;;
20828;SDS011;10575;50.124;8.582;2023-05-08T02:07:05;9.13;;;7.93;;
20828;SDS011;10575;50.124;8.582;2023-05-08T02:09:31;9.02;;;7.85;;
20828;SDS011;10575;50.124;8.582;2023-05-08T02:11:57;9.55;;;8.05;;
20828;SDS011;10575;50.124;8.582;2023-05-08T02:14:24;11.80;;;8.23;;
20828;SDS011;10575;50.124;8.582;2023-05-08T02:16:52;10.68;;;7.95;;
20828;SDS011;10575;50.124;8.582;2023-05-08T02:19:19;8.93;;;8.00;;
20828;SDS011;10575;50.124;8.582;2023-05-08T02:21:47;10.18;;;8.05;;
20828;SDS011;10575;50.124;8.582;2023-05-08T02:24:14;12.10;;;8.60;;
20828;SDS011;10575;50.124;8.582;2023-05-08T02:26:41;10.27;;;7.85;;
20828;SDS011;10575;50.124;8.582;2023-05-08T02:29:10;11.57;;;8.57;;
20828;SDS011;10575;50.124;8.582;2023-05-08T02:31:35;13.35;;;8.85;;
20828;SDS011;10575;50.124;8.582;2023-05-08T02:34:02;13.38;;;8.35;;
20828;SDS011;10575;50.124;8.582;2023-05-08T02:36:30;11.55;;;8.25;;
20828;SDS011;10575;50.124;8.582;2023-05-08T02:38:57;10.05;;;7.93;;
20828;SDS011;10575;50.124;8.582;2023-05-08T02:41:25;10.02;;;8.00;;
20828;SDS011;10575;50.124;8.582;2023-05-08T02:43:54;11.95;;;8.15;;
20828;SDS011;10575;50.124;8.582;2023-05-08T02:46:29;10.90;;;7.80;;
20828;SDS011;10575;50.124;8.582;2023-05-08T02:49:06;11.18;;;8.52;;
20828;SDS011;10575;50.124;8.582;2023-05-08T02:57:02;10.57;;;8.00;;
20828;SDS011;10575;50.124;8.582;2023-05-08T02:59:50;13.88;;;8.63;;
20828;SDS011;10575;50.124;8.582;2023-05-08T03:02:24;8.52;;;7.55;;
20828;SDS011;10575;50.124;8.582;2023-05-08T03:05:01;12.75;;;8.00;;
20828;SDS011;10575;50.124;8.582;2023-05-08T03:07:32;11.70;;;8.40;;
20828;SDS011;10575;50.124;8.582;2023-05-08T03:10:04;9.82;;;8.32;;
20828;SDS011;10575;50.124;8.582;2023-05-08T03:12:34;11.00;;;8.68;;
20828;SDS011;10575;50.124;8.582;2023-05-08T03:15:11;11.88;;;8.90;;
20828;SDS011;10575;50.124;8.582;2023-05-08T03:17:45;10.70;;;8.63;;
20828;SDS011;10575;50.124;8.582;2023-05-08T03:20:13;10.38;;;8.63;;
20828;SDS011;10575;50.124;8.582;2023-05-08T03:22:41;12.35;;;9.05;;
20828;SDS011;10575;50.124;8.582;2023-05-08T03:25:09;12.85;;;8.43;;
20828;SDS011;10575;50.124;8.582;2023-05-08T03:27:35;10.05;;;8.68;;
20828;SDS011;10575;50.124;8.582;2023-05-08T03:30:03;11.32;;;8.77;;
20828;SDS011;10575;50.124;8.582;2023-05-08T03:32:30;11.55;;;8.60;;
20828;SDS011;10575;50.124;8.582;2023-05-08T03:34:57;10.85;;;8.95;;
20828;SDS011;10575;50.124;8.582;2023-05-08T03:37:25;13.45;;;9.02;;
20828;SDS011;10575;50.124;8.582;2023-05-08T03:39:52;9.90;;;8.20;;
20828;SDS011;10575;50.124;8.582;2023-05-08T03:42:18;11.18;;;8.55;;
20828;SDS011;10575;50.124;8.582;2023-05-08T03:44:50;9.82;;;8.07;;
20828;SDS011;10575;50.124;8.582;2023-05-08T03:47:16;10.05;;;7.82;;
20828;SDS011;10575;50.124;8.582;2023-05-08T03:49:43;9.55;;;8.52;;
20828;SDS011;10575;50.124;8.582;2023-05-08T03:52:13;12.07;;;8.90;;
20828;SDS011;10575;50.124;8.582;2023-05-08T03:54:40;9.98;;;8.32;;
20828;SDS011;10575;50.124;8.582;2023-05-08T03:57:06;10.48;;;8.05;;
20828;SDS011;10575;50.124;8.582;2023-05-08T04:02:24;10.45;;;8.73;;
20828;SDS011;10575;50.124;8.582;2023-05-08T04:05:01;12.45;;;8.77;;
20828;SDS011;10575;50.124;8.582;2023-05-08T04:10:30;11.98;;;8.38;;
20828;SDS011;10575;50.124;8.582;2023-05-08T04:13:09;14.68;;;8.35;;
20828;SDS011;10575;50.124;8.582;2023-05-08T04:15:38;11.15;;;8.70;;
20828;SDS011;10575;50.124;8.582;2023-05-08T04:18:37;11.88;;;8.73;;
20828;SDS011;10575;50.124;8.582;2023-05-08T04:21:09;11.13;;;8.95;;
20828;SDS011;10575;50.124;8.582;2023-05-08T04:23:39;13.63;;;9.18;;
20828;SDS011;10575;50.124;8.582;2023-05-08T04:26:06;12.45;;;9.00;;
20828;SDS011;10575;50.124;8.582;2023-05-08T04:28:33;11.35;;;8.98;;
20828;SDS011;10575;50.124;8.582;2023-05-08T04:30:58;10.52;;;8.30;;
20828;SDS011;10575;50.124;8.582;2023-05-08T04:33:26;13.23;;;8.95;;
20828;SDS011;10575;50.124;8.582;2023-05-08T04:35:53;11.85;;;9.02;;
20828;SDS011;10575;50.124;8.582;2023-05-08T04:38:19;12.55;;;9.27;;
20828;SDS011;10575;50.124;8.582;2023-05-08T04:40:44;12.98;;;8.98;;
20828;SDS011;10575;50.124;8.582;2023-05-08T04:43:10;11.57;;;8.32;;
20828;SDS011;10575;50.124;8.582;2023-05-08T04:45:35;15.05;;;9.30;;
20828;SDS011;10575;50.124;8.582;2023-05-08T04:48:01;10.75;;;8.82;;
20828;SDS011;10575;50.124;8.582;2023-05-08T04:50:26;10.10;;;8.40;;
20828;SDS011;10575;50.124;8.582;2023-05-08T04:52:52;13.20;;;9.63;;
20828;SDS011;10575;50.124;8.582;2023-05-08T04:55:17;12.05;;;9.18;;
20828;SDS011;10575;50.124;8.582;2023-05-08T04:57:43;13.65;;;9.68;;
20828;SDS011;10575;50.124;8.582;2023-05-08T05:00:09;12.52;;;9.30;;
20828;SDS011;10575;50.124;8.582;2023-05-08T05:02:35;12.02;;;9.90;;
20828;SDS011;10575;50.124;8.582;2023-05-08T05:05:00;12.38;;;9.60;;
20828;SDS011;10575;50.124;8.582;2023-05-08T05:07:26;14.90;;;9.98;;
20828;SDS011;10575;50.124;8.582;2023-05-08T05:09:51;13.70;;;9.85;;
20828;SDS011;10575;50.124;8.582;2023-05-08T05:12:17;11.05;;;9.38;;
20828;SDS011;10575;50.124;8.582;2023-05-08T05:14:42;13.38;;;9.20;;
20828;SDS011;10575;50.124;8.582;2023-05-08T05:17:08;13.13;;;9.52;;
20828;SDS011;10575;50.124;8.582;2023-05-08T05:19:33;13.18;;;9.45;;
20828;SDS011;10575;50.124;8.582;2023-05-08T05:21:59;11.48;;;9.50;;
20828;SDS011;10575;50.124;8.582;2023-05-08T05:24:24;11.88;;;9.85;;
20828;SDS011;10575;50.124;8.582;2023-05-08T05:26:50;11.38;;;9.13;;
20828;SDS011;10575;50.124;8.582;2023-05-08T05:29:16;15.73;;;9.27;;
20828;SDS011;10575;50.124;8.582;2023-05-08T05:31:41;13.27;;;10.02;;
20828;SDS011;10575;50.124;8.582;2023-05-08T05:34:07;11.40;;;8.77;;
20828;SDS011;10575;50.124;8.582;2023-05-08T05:36:32;12.77;;;9.90;;
20828;SDS011;10575;50.124;8.582;2023-05-08T05:38:58;11.95;;;9.65;;
20828;SDS011;10575;50.124;8.582;2023-05-08T05:41:23;12.40;;;9.27;;
20828;SDS011;10575;50.124;8.582;2023-05-08T05:43:49;11.55;;;9.30;;
20828;SDS011;10575;50.124;8.582;2023-05-08T05:46:15;13.30;;;9.45;;
20828;SDS011;10575;50.124;8.582;2023-05-08T05:48:40;12.63;;;9.82;;
20828;SDS011;10575;50.124;8.582;2023-05-08T05:51:06;13.43;;;9.68;;
20828;SDS011;10575;50.124;8.582;2023-05-08T05:53:32;13.32;;;10.00;;
20828;SDS011;10575;50.124;8.582;2023-05-08T05:55:57;13.75;;;9.98;;
20828;SDS011;10575;50.124;8.582;2023-05-08T05:58:23;11.32;;;9.35;;
20828;SDS011;10575;50.124;8.582;2023-05-08T06:00:48;13.27;;;9.88;;
20828;SDS011;10575;50.124;8.582;2023-05-08T06:03:14;16.30;;;10.02;;
20828;SDS011;10575;50.124;8.582;2023-05-08T06:05:39;14.25;;;9.70;;
20828;SDS011;10575;50.124;8.582;2023-05-08T06:08:05;12.65;;;9.75;;
20828;SDS011;10575;50.124;8.582;2023-05-08T06:10:32;14.23;;;9.27;;
20828;SDS011;10575;50.124;8.582;2023-05-08T06:12:57;14.05;;;10.38;;
20828;SDS011;10575;50.124;8.582;2023-05-08T06:15:23;12.40;;;9.52;;
20828;SDS011;10575;50.124;8.582;2023-05-08T06:17:48;11.70;;;9.23;;
20828;SDS011;10575;50.124;8.582;2023-05-08T06:20:14;14.75;;;10.32;;
20828;SDS011;10575;50.124;8.582;2023-05-08T06:22:40;13.02;;;9.35;;
20828;SDS011;10575;50.124;8.582;2023-05-08T06:25:06;11.73;;;9.43;;
20828;SDS011;10575;50.124;8.582;2023-05-08T06:27:33;13.00;;;9.68;;
20828;SDS011;10575;50.124;8.582;2023-05-08T06:29:59;10.90;;;9.25;;
20828;SDS011;10575;50.124;8.582;2023-05-08T06:32:25;11.38;;;8.98;;
20828;SDS011;10575;50.124;8.582;2023-05-08T06:34:50;12.43;;;9.13;;
20828;SDS011;10575;50.124;8.582;2023-05-08T06:37:16;14.15;;;9.70;;
20828;SDS011;10575;50.124;8.582;2023-05-08T06:39:42;11.88;;;9.10;;
20828;SDS011;10575;50.124;8.582;2023-05-08T06:42:07;16.83;;;9.75;;
20828;SDS011;10575;50.124;8.582;2023-05-08T06:44:33;14.15;;;9.50;;
20828;SDS011;10575;50.124;8.582;2023-05-08T06:46:58;13.18;;;8.93;;
20828;SDS011;10575;50.124;8.582;2023-05-08T06:49:24;14.65;;;8.98;;
20828;SDS011;10575;50.124;8.582;2023-05-08T06:51:49;13.40;;;8.68;;
20828;SDS011;10575;50.124;8.582;2023-05-08T06:54:15;10.65;;;8.43;;
20828;SDS011;10575;50.124;8.582;2023-05-08T06:56:41;12.10;;;9.27;;
20828;SDS011;10575;50.124;8.582;2023-05-08T06:59:06;10.70;;;9.02;;
20828;SDS011;10575;50.124;8.582;2023-05-08T07:01:32;11.55;;;9.50;;
20828;SDS011;10575;50.124;8.582;2023-05-08T07:03:58;12.15;;;9.35;;
20828;SDS011;10575;50.124;8.582;2023-05-08T07:06:24;12.68;;;8.50;;
20828;SDS011;10575;50.124;8.582;2023-05-08T07:08:50;14.65;;;8.52;;
20828;SDS011;10575;50.124;8.582;2023-05-08T07:11:15;11.98;;;9.27;;
20828;SDS011;10575;50.124;8.582;2023-05-08T07:13:41;12.07;;;9.68;;
20828;SDS011;10575;50.124;8.582;2023-05-08T07:16:08;13.55;;;9.52;;
20828;SDS011;10575;50.124;8.582;2023-05-08T07:18:34;11.57;;;8.93;;
20828;SDS011;10575;50.124;8.582;2023-05-08T07:21:00;10.13;;;8.63;;
20828;SDS011;10575;50.124;8.582;2023-05-08T07:23:26;10.70;;;8.15;;
20828;SDS011;10575;50.124;8.582;2023-05-08T07:25:51;11.52;;;8.88;;
20828;SDS011;10575;50.124;8.582;2023-05-08T07:28:18;11.10;;;9.10;;
20828;SDS011;10575;50.124;8.582;2023-05-08T07:30:44;12.40;;;8.90;;
20828;SDS011;10575;50.124;8.582;2023-05-08T07:33:09;12.52;;;9.00;;
20828;SDS011;10575;50.124;8.582;2023-05-08T07:35:37;11.82;;;9.15;;
20828;SDS011;10575;50.124;8.582;2023-05-08T07:38:03;12.80;;;10.43;;
20828;SDS011;10575;50.124;8.582;2023-05-08T07:40:29;11.60;;;8.43;;
20828;SDS011;10575;50.124;8.582;2023-05-08T07:42:54;12.88;;;9.07;;
20828;SDS011;10575;50.124;8.582;2023-05-08T07:45:20;12.35;;;9.65;;
20828;SDS011;10575;50.124;8.582;2023-05-08T07:47:49;13.27;;;8.75;;
20828;SDS011;10575;50.124;8.582;2023-05-08T07:50:16;12.88;;;7.97;;
20828;SDS011;10575;50.124;8.582;2023-05-08T07:52:42;13.48;;;8.93;;
20828;SDS011;10575;50.124;8.582;2023-05-08T07:55:07;10.95;;;9.05;;
20828;SDS011;10575;50.124;8.582;2023-05-08T07:57:36;11.38;;;8.80;;
20828;SDS011;10575;50.124;8.582;2023-05-08T08:00:04;12.75;;;9.48;;
20828;SDS011;10575;50.124;8.582;2023-05-08T08:02:31;12.57;;;9.55;;
20828;SDS011;10575;50.124;8.582;2023-05-08T08:04:56;14.00;;;9.88;;
20828;SDS011;10575;50.124;8.582;2023-05-08T08:07:22;11.13;;;8.60;;
20828;SDS011;10575;50.124;8.582;2023-05-08T08:09:47;12.27;;;8.73;;
20828;SDS011;10575;50.124;8.582;2023-05-08T08:12:13;12.45;;;9.45;;
20828;SDS011;10575;50.124;8.582;2023-05-08T08:14:39;11.45;;;9.88;;
20828;SDS011;10575;50.124;8.582;2023-05-08T08:17:05;11.25;;;8.68;;
20828;SDS011;10575;50.124;8.582;2023-05-08T08:19:30;15.15;;;9.20;;
20828;SDS011;10575;50.124;8.582;2023-05-08T08:21:56;12.18;;;8.48;;
20828;SDS011;10575;50.124;8.582;2023-05-08T08:24:21;10.70;;;9.38;;
20828;SDS011;10575;50.124;8.582;2023-05-08T08:26:47;12.30;;;8.65;;
20828;SDS011;10575;50.124;8.582;2023-05-08T08:29:13;12.65;;;9.13;;
20828;SDS011;10575;50.124;8.582;2023-05-08T08:31:38;11.77;;;9.15;;
20828;SDS011;10575;50.124;8.582;2023-05-08T08:34:04;13.43;;;8.85;;
20828;SDS011;10575;50.124;8.582;2023-05-08T08:36:30;12.10;;;8.35;;
20828;SDS011;10575;50.124;8.582;2023-05-08T08:38:56;10.77;;;8.98;;
20828;SDS011;10575;50.124;8.582;2023-05-08T08:41:22;11.80;;;8.85;;
20828;SDS011;10575;50.124;8.582;2023-05-08T08:43:48;10.98;;;9.68;;
20828;SDS011;10575;50.124;8.582;2023-05-08T08:46:13;15.98;;;10.20;;
20828;SDS011;10575;50.124;8.582;2023-05-08T08:48:43;11.25;;;9.02;;
20828;SDS011;10575;50.124;8.582;2023-05-08T08:51:12;12.00;;;9.82;;
20828;SDS011;10575;50.124;8.582;2023-05-08T08:53:43;13.35;;;9.77;;
20828;SDS011;10575;50.124;8.582;2023-05-08T08:56:13;11.75;;;9.15;;
20828;SDS011;10575;50.124;8.582;2023-05-08T08:58:41;14.25;;;9.23;;
20828;SDS011;10575;50.124;8.582;2023-05-08T09:01:14;12.20;;;9.07;;
20828;SDS011;10575;50.124;8.582;2023-05-08T09:03:41;13.27;;;10.27;;
20828;SDS011;10575;50.124;8.582;2023-05-08T09:06:07;11.60;;;9.05;;
20828;SDS011;10575;50.124;8.582;2023-05-08T09:08:33;12.15;;;9.55;;
20828;SDS011;10575;50.124;8.582;2023-05-08T09:11:00;9.05;;;8.13;;
20828;SDS011;10575;50.124;8.582;2023-05-08T09:13:27;15.55;;;9.48;;
20828;SDS011;10575;50.124;8.582;2023-05-08T09:15:53;11.45;;;8.68;;
20828;SDS011;10575;50.124;8.582;2023-05-08T09:18:19;12.70;;;9.60;;
20828;SDS011;10575;50.124;8.582;2023-05-08T09:20:45;14.10;;;9.75;;
20828;SDS011;10575;50.124;8.582;2023-05-08T09:23:11;13.13;;;9.80;;
20828;SDS011;10575;50.124;8.582;2023-05-08T09:25:42;12.73;;;9.02;;
20828;SDS011;10575;50.124;8.582;2023-05-08T09:28:16;13.82;;;9.07;;
20828;SDS011;10575;50.124;8.582;2023-05-08T09:30:51;12.35;;;10.00;;
20828;SDS011;10575;50.124;8.582;2023-05-08T09:33:19;11.40;;;10.07;;
20828;SDS011;10575;50.124;8.582;2023-05-08T09:35:46;14.25;;;9.77;;
20828;SDS011;10575;50.124;8.582;2023-05-08T09:38:31;13.60;;;9.73;;
20828;SDS011;10575;50.124;8.582;2023-05-08T09:41:09;11.93;;;8.85;;
20828;SDS011;10575;50.124;8.582;2023-05-08T09:43:38;11.60;;;9.30;;
20828;SDS011;10575;50.124;8.582;2023-05-08T09:48:57;14.57;;;10.07;;
20828;SDS011;10575;50.124;8.582;2023-05-08T09:51:23;15.18;;;9.00;;
20828;SDS011;10575;50.124;8.582;2023-05-08T09:53:51;14.02;;;9.85;;
20828;SDS011;10575;50.124;8.582;2023-05-08T09:56:34;11.27;;;8.93;;
20828;SDS011;10575;50.124;8.582;2023-05-08T09:59:25;10.85;;;8.85;;
20828;SDS011;10575;50.124;8.582;2023-05-08T10:01:53;12.63;;;9.25;;
20828;SDS011;10575;50.124;8.582;2023-05-08T10:04:35;14.98;;;9.60;;
20828;SDS011;10575;50.124;8.582;2023-05-08T10:07:01;13.73;;;9.60;;
20828;SDS011;10575;50.124;8.582;2023-05-08T10:09:28;12.85;;;9.80;;
20828;SDS011;10575;50.124;8.582;2023-05-08T10:11:54;12.15;;;10.50;;
20828;SDS011;10575;50.124;8.582;2023-05-08T10:14:20;14.27;;;11.10;;
20828;SDS011;10575;50.124;8.582;2023-05-08T10:16:47;14.75;;;11.18;;
20828;SDS011;10575;50.124;8.582;2023-05-08T10:19:16;13.20;;;10.07;;
20828;SDS011;10575;50.124;8.582;2023-05-08T10:21:46;11.90;;;10.10;;
20828;SDS011;10575;50.124;8.582;2023-05-08T10:24:20;13.68;;;10.32;;
20828;SDS011;10575;50.124;8.582;2023-05-08T10:29:24;13.02;;;10.43;;
20828;SDS011;10575;50.124;8.582;2023-05-08T10:31:56;15.82;;;10.70;;
20828;SDS011;10575;50.124;8.582;2023-05-08T10:34:23;14.75;;;11.32;;
20828;SDS011;10575;50.124;8.582;2023-05-08T10:36:51;13.10;;;10.95;;
20828;SDS011;10575;50.124;8.582;2023-05-08T10:39:17;14.05;;;10.52;;
20828;SDS011;10575;50.124;8.582;2023-05-08T10:41:47;14.98;;;11.40;;
20828;SDS011;10575;50.124;8.582;2023-05-08T10:44:14;15.18;;;12.00;;
20828;SDS011;10575;50.124;8.582;2023-05-08T10:46:42;13.95;;;10.55;;
20828;SDS011;10575;50.124;8.582;2023-05-08T10:49:22;13.75;;;10.35;;
20828;SDS011;10575;50.124;8.582;2023-05-08T10:52:08;14.07;;;10.98;;
20828;SDS011;10575;50.124;8.582;2023-05-08T10:54:47;15.65;;;11.15;;
20828;SDS011;10575;50.124;8.582;2023-05-08T10:57:17;11.50;;;9.18;;
20828;SDS011;10575;50.124;8.582;2023-05-08T10:59:46;13.55;;;10.38;;
20828;SDS011;10575;50.124;8.582;2023-05-08T11:02:11;14.18;;;10.70;;
20828;SDS011;10575;50.124;8.582;2023-05-08T11:04:37;13.20;;;10.38;;
20828;SDS011;10575;50.124;8.582;2023-05-08T11:07:03;13.23;;;10.35;;
20828;SDS011;10575;50.124;8.582;2023-05-08T11:09:30;13.43;;;10.50;;
20828;SDS011;10575;50.124;8.582;2023-05-08T11:12:25;13.77;;;10.50;;
20828;SDS011;10575;50.124;8.582;2023-05-08T11:17:27;14.77;;;10.50;;
20828;SDS011;10575;50.124;8.582;2023-05-08T11:19:54;9.43;;;8.43;;
20828;SDS011;10575;50.124;8.582;2023-05-08T11:22:28;13.75;;;10.05;;
20828;SDS011;10575;50.124;8.582;2023-05-08T11:24:57;12.07;;;9.00;;
20828;SDS011;10575;50.124;8.582;2023-05-08T11:32:55;18.67;;;11.32;;
20828;SDS011;10575;50.124;8.582;2023-05-08T11:35:39;11.30;;;9.27;;
20828;SDS011;10575;50.124;8.582;2023-05-08T11:40:54;13.98;;;10.63;;
20828;SDS011;10575;50.124;8.582;2023-05-08T11:46:04;13.43;;;10.10;;
20828;SDS011;10575;50.124;8.582;2023-05-08T11:48:32;16.50;;;11.32;;
20828;SDS011;10575;50.124;8.582;2023-05-08T11:50:59;12.75;;;11.02;;
20828;SDS011;10575;50.124;8.582;2023-05-08T11:53:25;12.85;;;10.52;;
20828;SDS011;10575;50.124;8.582;2023-05-08T11:55:51;16.77;;;11.05;;
20828;SDS011;10575;50.124;8.582;2023-05-08T11:58:17;14.32;;;10.43;;
20828;SDS011;10575;50.124;8.582;2023-05-08T12:00:43;13.27;;;10.85;;
20828;SDS011;10575;50.124;8.582;2023-05-08T12:03:10;12.80;;;10.65;;
20828;SDS011;10575;50.124;8.582;2023-05-08T12:05:37;11.00;;;8.50;;
20828;SDS011;10575;50.124;8.582;2023-05-08T12:08:04;12.32;;;10.30;;
20828;SDS011;10575;50.124;8.582;2023-05-08T12:10:30;11.10;;;9.20;;
20828;SDS011;10575;50.124;8.582;2023-05-08T12:12:56;11.40;;;10.02;;
20828;SDS011;10575;50.124;8.582;2023-05-08T12:15:21;12.38;;;10.73;;
20828;SDS011;10575;50.124;8.582;2023-05-08T12:17:47;15.30;;;11.82;;
20828;SDS011;10575;50.124;8.582;2023-05-08T12:20:16;11.90;;;9.82;;
20828;SDS011;10575;50.124;8.582;2023-05-08T12:22:49;11.98;;;10.10;;
20828;SDS011;10575;50.124;8.582;2023-05-08T12:25:16;14.05;;;11.10;;
20828;SDS011;10575;50.124;8.582;2023-05-08T12:27:42;14.60;;;11.15;;
20828;SDS011;10575;50.124;8.582;2023-05-08T12:30:09;12.02;;;10.23;;
20828;SDS011;10575;50.124;8.582;2023-05-08T12:32:39;13.65;;;10.63;;
20828;SDS011;10575;50.124;8.582;2023-05-08T12:35:06;14.18;;;10.50;;
20828;SDS011;10575;50.124;8.582;2023-05-08T12:37:32;14.07;;;11.50;;
20828;SDS011;10575;50.124;8.582;2023-05-08T12:39:58;15.18;;;12.00;;
20828;SDS011;10575;50.124;8.582;2023-05-08T12:47:47;13.73;;;10.77;;
20828;SDS011;10575;50.124;8.582;2023-05-08T12:50:14;19.08;;;10.23;;
20828;SDS011;10575;50.124;8.582;2023-05-08T12:52:41;13.45;;;9.65;;
20828;SDS011;10575;50.124;8.582;2023-05-08T12:55:18;14.35;;;10.98;;
20828;SDS011;10575;50.124;8.582;2023-05-08T12:57:49;17.23;;;10.93;;
20828;SDS011;10575;50.124;8.582;2023-05-08T13:00:22;13.57;;;9.98;;
20828;SDS011;10575;50.124;8.582;2023-05-08T13:02:52;12.98;;;11.43;;
20828;SDS011;10575;50.124;8.582;2023-05-08T13:05:21;12.73;;;10.85;;
20828;SDS011;10575;50.124;8.582;2023-05-08T13:07:48;13.90;;;11.13;;
20828;SDS011;10575;50.124;8.582;2023-05-08T13:10:15;16.20;;;11.15;;
20828;SDS011;10575;50.124;8.582;2023-05-08T13:12:42;14.68;;;9.65;;
20828;SDS011;10575;50.124;8.582;2023-05-08T13:15:11;12.52;;;10.40;;
20828;SDS011;10575;50.124;8.582;2023-05-08T13:17:36;17.20;;;11.52;;
20828;SDS011;10575;50.124;8.582;2023-05-08T13:20:02;14.07;;;10.60;;
20828;SDS011;10575;50.124;8.582;2023-05-08T13:22:28;15.65;;;10.13;;
20828;SDS011;10575;50.124;8.582;2023-05-08T13:24:54;12.82;;;10.73;;
20828;SDS011;10575;50.124;8.582;2023-05-08T13:27:20;16.25;;;10.85;;
20828;SDS011;10575;50.124;8.582;2023-05-08T13:29:45;16.13;;;11.25;;
20828;SDS011;10575;50.124;8.582;2023-05-08T13:32:11;12.48;;;10.43;;
20828;SDS011;10575;50.124;8.582;2023-05-08T13:34:36;13.93;;;10.27;;
20828;SDS011;10575;50.124;8.582;2023-05-08T13:37:02;13.05;;;10.52;;
20828;SDS011;10575;50.124;8.582;2023-05-08T13:39:27;11.30;;;10.02;;
20828;SDS011;10575;50.124;8.582;2023-05-08T13:41:55;15.15;;;10.13;;
20828;SDS011;10575;50.124;8.582;2023-05-08T13:44:21;13.73;;;11.18;;
20828;SDS011;10575;50.124;8.582;2023-05-08T13:46:47;12.85;;;10.30;;
20828;SDS011;10575;50.124;8.582;2023-05-08T13:49:12;11.38;;;9.65;;
20828;SDS011;10575;50.124;8.582;2023-05-08T13:51:38;12.07;;;9.38;;
20828;SDS011;10575;50.124;8.582;2023-05-08T13:54:03;11.60;;;10.32;;
20828;SDS011;10575;50.124;8.582;2023-05-08T13:56:29;14.10;;;11.15;;
20828;SDS011;10575;50.124;8.582;2023-05-08T13:58:54;13.65;;;10.65;;
20828;SDS011;10575;50.124;8.582;2023-05-08T14:01:20;13.05;;;11.20;;
20828;SDS011;10575;50.124;8.582;2023-05-08T14:03:45;13.55;;;10.77;;
20828;SDS011;10575;50.124;8.582;2023-05-08T14:06:11;13.65;;;9.93;;
20828;SDS011;10575;50.124;8.582;2023-05-08T14:08:36;10.57;;;8.77;;
20828;SDS011;10575;50.124;8.582;2023-05-08T14:11:02;12.43;;;9.98;;
20828;SDS011;10575;50.124;8.582;2023-05-08T14:13:27;17.40;;;11.55;;
20828;SDS011;10575;50.124;8.582;2023-05-08T14:15:53;11.57;;;9.02;;
20828;SDS011;10575;50.124;8.582;2023-05-08T14:18:18;11.55;;;9.50;;
20828;SDS011;10575;50.124;8.582;2023-05-08T14:20:44;12.50;;;10.05;;
20828;SDS011;10575;50.124;8.582;2023-05-08T14:23:09;9.55;;;7.88;;
20828;SDS011;10575;50.124;8.582;2023-05-08T14:25:35;16.67;;;9.80;;
20828;SDS011;10575;50.124;8.582;2023-05-08T14:28:00;15.35;;;9.35;;
20828;SDS011;10575;50.124;8.582;2023-05-08T14:30:26;8.75;;;7.82;;
20828;SDS011;10575;50.124;8.582;2023-05-08T14:32:51;10.60;;;8.70;;
20828;SDS011;10575;50.124;8.582;2023-05-08T14:35:17;12.85;;;9.32;;
20828;SDS011;10575;50.124;8.582;2023-05-08T14:37:42;11.32;;;8.25;;
20828;SDS011;10575;50.124;8.582;2023-05-08T14:40:08;11.70;;;8.63;;
20828;SDS011;10575;50.124;8.582;2023-05-08T14:42:33;11.23;;;8.82;;
20828;SDS011;10575;50.124;8.582;2023-05-08T14:45:00;12.68;;;8.13;;
20828;SDS011;10575;50.124;8.582;2023-05-08T14:47:25;10.80;;;8.60;;
20828;SDS011;10575;50.124;8.582;2023-05-08T14:49:51;9.90;;;8.80;;
20828;SDS011;10575;50.124;8.582;2023-05-08T14:52:17;12.40;;;9.45;;
20828;SDS011;10575;50.124;8.582;2023-05-08T14:54:43;9.98;;;8.15;;
20828;SDS011;10575;50.124;8.582;2023-05-08T14:57:10;10.27;;;8.20;;
20828;SDS011;10575;50.124;8.582;2023-05-08T14:59:36;10.80;;;8.38;;
20828;SDS011;10575;50.124;8.582;2023-05-08T15:02:01;10.30;;;8.10;;
20828;SDS011;10575;50.124;8.582;2023-05-08T15:04:27;9.43;;;7.55;;
20828;SDS011;10575;50.124;8.582;2023-05-08T15:06:52;9.80;;;8.80;;
20828;SDS011;10575;50.124;8.582;2023-05-08T15:09:18;9.60;;;8.13;;
20828;SDS011;10575;50.124;8.582;2023-05-08T15:11:44;10.07;;;8.57;;
20828;SDS011;10575;50.124;8.582;2023-05-08T15:14:09;11.95;;;8.45;;
20828;SDS011;10575;50.124;8.582;2023-05-08T15:16:35;10.38;;;8.07;;
20828;SDS011;10575;50.124;8.582;2023-05-08T15:19:00;9.25;;;8.05;;
20828;SDS011;10575;50.124;8.582;2023-05-08T15:21:26;12.32;;;8.85;;
20828;SDS011;10575;50.124;8.582;2023-05-08T15:23:52;10.98;;;8.48;;
20828;SDS011;10575;50.124;8.582;2023-05-08T15:26:19;8.77;;;7.40;;
20828;SDS011;10575;50.124;8.582;2023-05-08T15:28:45;7.18;;;6.40;;